createdAt,value
2018-08-03T00:00:07.057Z,24.88
2018-08-03T00:01:07.097Z,24.86
2018-08-03T00:02:07.034Z,24.88
2018-08-03T00:03:07.025Z,24.71
2018-08-03T00:04:07.021Z,24.78
2018-08-03T00:05:07.009Z,24.66
2018-08-03T00:06:07.000Z,24.66
2018-08-03T00:07:06.981Z,24.62
2018-08-03T00:08:06.976Z,24.71
2018-08-03T00:09:06.962Z,24.71
2018-08-03T00:10:06.953Z,24.66
2018-08-03T00:11:06.946Z,24.74
2018-08-03T00:12:06.934Z,24.68
2018-08-03T00:13:06.924Z,24.71
2018-08-03T00:14:06.904Z,24.62
2018-08-03T00:15:06.897Z,24.63
2018-08-03T00:16:06.894Z,24.56
2018-08-03T00:17:06.875Z,24.63
2018-08-03T00:18:06.862Z,24.55
2018-08-03T00:19:06.853Z,24.62
2018-08-03T00:20:06.841Z,24.59
2018-08-03T00:21:06.846Z,24.56
2018-08-03T00:22:06.822Z,24.43
2018-08-03T00:23:06.809Z,24.53
2018-08-03T00:24:06.807Z,24.53
2018-08-03T00:25:06.844Z,24.41
2018-08-03T00:26:06.774Z,24.46
2018-08-03T00:27:06.766Z,24.43
2018-08-03T00:28:06.803Z,24.37
2018-08-03T00:29:06.745Z,24.40
2018-08-03T00:30:06.733Z,24.41
2018-08-03T00:31:06.732Z,24.40
2018-08-03T00:32:06.710Z,24.32
2018-08-03T00:33:06.710Z,24.37
2018-08-03T00:34:06.691Z,24.29
2018-08-03T00:35:06.681Z,24.34
2018-08-03T00:36:06.669Z,24.38
2018-08-03T00:37:06.655Z,24.37
2018-08-03T00:38:06.650Z,24.28
2018-08-03T00:39:06.635Z,24.31
2018-08-03T00:40:06.624Z,24.34
2018-08-03T00:41:06.722Z,24.25
2018-08-03T00:42:06.605Z,24.16
2018-08-03T00:43:06.594Z,24.25
2018-08-03T00:44:06.621Z,24.32
2018-08-03T00:45:06.571Z,24.29
2018-08-03T00:46:06.565Z,24.26
2018-08-03T00:47:06.548Z,24.16
2018-08-03T00:48:06.537Z,24.16
2018-08-03T00:49:06.525Z,24.14
2018-08-03T00:50:06.511Z,24.18
2018-08-03T00:51:06.503Z,24.11
2018-08-03T00:52:06.490Z,24.11
2018-08-03T00:53:06.481Z,24.16
2018-08-03T00:54:06.487Z,24.09
2018-08-03T00:55:06.458Z,24.09
2018-08-03T00:56:06.446Z,23.99
2018-08-03T00:57:06.539Z,23.95
2018-08-03T00:58:06.425Z,23.92
2018-08-03T00:59:06.412Z,23.99
2018-08-03T01:00:06.417Z,23.94
2018-08-03T01:01:06.392Z,24.01
2018-08-03T01:02:06.382Z,23.94
2018-08-03T01:03:06.372Z,23.96
2018-08-03T01:04:06.360Z,23.95
2018-08-03T01:05:06.347Z,23.89
2018-08-03T01:06:06.334Z,23.89
2018-08-03T01:07:06.335Z,23.92
2018-08-03T01:08:06.312Z,23.84
2018-08-03T01:09:06.306Z,23.89
2018-08-03T01:10:06.297Z,23.92
2018-08-03T01:11:06.284Z,23.86
2018-08-03T01:12:06.269Z,23.82
2018-08-03T01:13:06.261Z,23.84
2018-08-03T01:14:06.245Z,23.84
2018-08-03T01:15:06.235Z,23.91
2018-08-03T01:16:06.225Z,23.81
2018-08-03T01:17:06.212Z,23.81
2018-08-03T01:18:06.207Z,23.82
2018-08-03T01:19:06.199Z,23.81
2018-08-03T01:20:06.189Z,23.77
2018-08-03T01:21:06.210Z,23.77
2018-08-03T01:22:06.157Z,23.66
2018-08-03T01:23:06.145Z,23.69
2018-08-03T01:24:06.135Z,23.67
2018-08-03T01:25:06.127Z,23.63
2018-08-03T01:26:06.117Z,23.66
2018-08-03T01:27:06.104Z,23.67
2018-08-03T01:28:06.098Z,23.67
2018-08-03T01:29:06.077Z,23.59
2018-08-03T01:30:06.067Z,23.56
2018-08-03T01:31:06.054Z,23.59
2018-08-03T01:32:06.044Z,23.63
2018-08-03T01:33:06.032Z,23.69
2018-08-03T01:34:06.046Z,23.59
2018-08-03T01:35:06.009Z,23.63
2018-08-03T01:36:05.998Z,23.62
2018-08-03T01:37:05.986Z,23.54
2018-08-03T01:38:05.974Z,23.56
2018-08-03T01:39:05.969Z,23.49
2018-08-03T01:40:05.965Z,23.55
2018-08-03T01:41:05.944Z,23.42
2018-08-03T01:42:05.932Z,23.54
2018-08-03T01:43:05.918Z,23.48
2018-08-03T01:44:05.908Z,23.40
2018-08-03T01:45:05.901Z,23.32
2018-08-03T01:46:05.886Z,23.37
2018-08-03T01:47:06.013Z,23.42
2018-08-03T01:48:05.863Z,23.37
2018-08-03T01:49:05.854Z,23.40
2018-08-03T01:50:05.874Z,23.34
2018-08-03T01:51:06.837Z,23.36
2018-08-03T01:52:05.815Z,23.39
2018-08-03T01:53:05.854Z,23.37
2018-08-03T01:54:05.791Z,23.37
2018-08-03T01:55:05.789Z,23.37
2018-08-03T01:56:05.772Z,23.29
2018-08-03T01:57:05.761Z,23.37
2018-08-03T01:58:05.746Z,23.28
2018-08-03T01:59:05.793Z,23.33
2018-08-03T02:00:05.724Z,23.32
2018-08-03T02:01:05.712Z,23.26
2018-08-03T02:02:05.711Z,23.20
2018-08-03T02:03:05.695Z,23.26
2018-08-03T02:04:05.676Z,23.28
2018-08-03T02:05:05.672Z,23.32
2018-08-03T02:06:05.653Z,23.36
2018-08-03T02:07:05.644Z,23.37
2018-08-03T02:08:05.634Z,23.28
2018-08-03T02:09:05.621Z,23.34
2018-08-03T02:10:05.610Z,23.26
2018-08-03T02:11:05.597Z,23.23
2018-08-03T02:12:05.584Z,23.26
2018-08-03T02:13:05.572Z,23.21
2018-08-03T02:14:05.659Z,23.25
2018-08-03T02:15:05.956Z,23.25
2018-08-03T02:16:05.539Z,23.25
2018-08-03T02:18:32.799Z,23.16
2018-08-03T02:19:29.958Z,23.14
2018-08-03T02:24:50.118Z,23.16
2018-08-03T02:25:50.104Z,23.13
2018-08-03T02:26:50.092Z,23.17
2018-08-03T02:27:50.080Z,23.18
2018-08-03T02:28:50.127Z,23.13
2018-08-03T02:29:50.058Z,23.16
2018-08-03T02:30:50.043Z,23.14
2018-08-03T02:31:50.043Z,23.14
2018-08-03T02:32:50.021Z,23.08
2018-08-03T02:33:50.011Z,22.98
2018-08-03T02:34:50.004Z,22.98
2018-08-03T02:35:49.990Z,22.98
2018-08-03T02:36:49.971Z,23.02
2018-08-03T02:37:49.957Z,22.99
2018-08-03T02:38:49.947Z,23.01
2018-08-03T02:39:49.937Z,23.01
2018-08-03T02:40:49.930Z,22.95
2018-08-03T02:41:49.915Z,22.91
2018-08-03T02:42:49.902Z,22.91
2018-08-03T02:43:49.886Z,22.89
2018-08-03T02:44:50.030Z,22.95
2018-08-03T02:45:49.868Z,22.89
2018-08-03T02:46:49.850Z,22.91
2018-08-03T02:47:49.871Z,22.93
2018-08-03T02:48:49.830Z,22.89
2018-08-03T02:49:49.816Z,22.98
2018-08-03T02:50:49.803Z,22.88
2018-08-03T02:51:49.795Z,22.92
2018-08-03T02:52:49.778Z,22.83
2018-08-03T02:53:49.770Z,22.84
2018-08-03T02:54:49.756Z,22.84
2018-08-03T02:55:49.752Z,22.81
2018-08-03T02:56:49.732Z,22.83
2018-08-03T02:57:49.730Z,22.77
2018-08-03T02:58:49.708Z,22.73
2018-08-03T02:59:49.697Z,22.80
2018-08-03T03:00:49.801Z,22.80
2018-08-03T03:01:49.673Z,22.83
2018-08-03T03:02:49.664Z,22.81
2018-08-03T03:03:49.707Z,22.81
2018-08-03T03:04:49.646Z,22.78
2018-08-03T03:05:49.626Z,22.78
2018-08-03T03:06:49.670Z,22.68
2018-08-03T03:07:49.600Z,22.70
2018-08-03T03:08:49.595Z,22.74
2018-08-03T03:09:49.578Z,22.70
2018-08-03T03:10:49.566Z,22.70
2018-08-03T03:11:49.560Z,22.78
2018-08-03T03:12:49.544Z,22.71
2018-08-03T03:13:49.529Z,22.73
2018-08-03T03:14:49.526Z,22.68
2018-08-03T03:15:49.513Z,22.71
2018-08-03T03:16:49.497Z,22.70
2018-08-03T03:17:49.488Z,22.76
2018-08-03T03:18:49.474Z,22.63
2018-08-03T03:19:49.539Z,22.65
2018-08-03T03:20:49.452Z,22.67
2018-08-03T03:21:49.434Z,22.67
2018-08-03T03:22:49.421Z,22.63
2018-08-03T03:23:49.412Z,22.65
2018-08-03T03:24:49.565Z,22.65
2018-08-03T03:25:49.402Z,22.58
2018-08-03T03:26:49.374Z,22.61
2018-08-03T03:27:49.414Z,22.55
2018-08-03T03:28:49.361Z,22.56
2018-08-03T03:29:49.341Z,22.51
2018-08-03T03:30:49.326Z,22.53
2018-08-03T03:31:49.320Z,22.55
2018-08-03T03:32:49.304Z,22.56
2018-08-03T03:33:49.293Z,22.46
2018-08-03T03:34:49.280Z,22.47
2018-08-03T03:35:49.276Z,22.53
2018-08-03T03:36:49.255Z,22.46
2018-08-03T03:37:49.242Z,22.53
2018-08-03T03:38:49.233Z,22.49
2018-08-03T03:39:49.222Z,22.38
2018-08-03T03:40:49.323Z,22.38
2018-08-03T03:41:49.201Z,22.31
2018-08-03T03:42:49.187Z,22.46
2018-08-03T03:43:49.273Z,22.41
2018-08-03T03:44:49.160Z,22.44
2018-08-03T03:45:49.148Z,22.46
2018-08-03T03:46:49.134Z,22.43
2018-08-03T03:47:49.125Z,22.36
2018-08-03T03:48:49.110Z,22.34
2018-08-03T03:49:49.100Z,22.41
2018-08-03T03:50:49.089Z,22.44
2018-08-03T03:51:49.080Z,22.31
2018-08-03T03:52:49.064Z,22.37
2018-08-03T03:53:49.053Z,22.33
2018-08-03T03:54:49.038Z,22.36
2018-08-03T03:55:49.034Z,22.31
2018-08-03T03:56:49.013Z,22.41
2018-08-03T03:57:49.002Z,22.38
2018-08-03T03:58:48.989Z,22.36
2018-08-03T03:59:48.983Z,22.41
2018-08-03T04:00:48.972Z,22.31
2018-08-03T04:01:48.953Z,22.36
2018-08-03T04:02:48.940Z,22.33
2018-08-03T04:03:48.951Z,22.26
2018-08-03T04:04:48.918Z,22.36
2018-08-03T04:05:48.908Z,22.38
2018-08-03T04:06:48.891Z,22.40
2018-08-03T04:07:48.880Z,22.34
2018-08-03T04:08:48.870Z,22.28
2018-08-03T04:09:48.855Z,22.37
2018-08-03T04:10:48.850Z,22.34
2018-08-03T04:11:48.832Z,22.28
2018-08-03T04:12:48.819Z,22.26
2018-08-03T04:13:48.806Z,22.30
2018-08-03T04:14:48.801Z,22.37
2018-08-03T04:15:48.781Z,22.37
2018-08-03T04:16:48.769Z,22.41
2018-08-03T04:17:48.757Z,22.43
2018-08-03T04:18:48.747Z,22.46
2018-08-03T04:19:48.734Z,22.47
2018-08-03T04:20:48.726Z,22.41
2018-08-03T04:21:48.710Z,22.41
2018-08-03T04:22:48.698Z,22.53
2018-08-03T04:23:48.685Z,22.52
2018-08-03T04:24:48.674Z,22.55
2018-08-03T04:25:48.664Z,22.44
2018-08-03T04:26:48.648Z,22.44
2018-08-03T04:27:48.637Z,22.44
2018-08-03T04:28:48.624Z,22.49
2018-08-03T04:29:48.614Z,22.38
2018-08-03T04:30:48.614Z,22.47
2018-08-03T04:31:48.587Z,22.43
2018-08-03T04:32:48.580Z,22.38
2018-08-03T04:33:48.562Z,22.58
2018-08-03T04:34:48.554Z,22.41
2018-08-03T04:35:48.539Z,22.46
2018-08-03T04:36:48.527Z,22.61
2018-08-03T04:37:48.525Z,22.51
2018-08-03T04:38:48.532Z,22.58
2018-08-03T04:39:48.530Z,22.53
2018-08-03T04:40:48.477Z,22.59
2018-08-03T04:41:48.465Z,22.53
2018-08-03T04:42:48.455Z,22.61
2018-08-03T04:43:48.443Z,22.58
2018-08-03T04:44:48.433Z,22.53
2018-08-03T04:45:48.422Z,22.51
2018-08-03T04:46:48.405Z,22.46
2018-08-03T04:47:48.399Z,22.49
2018-08-03T04:48:48.386Z,22.51
2018-08-03T04:49:48.372Z,22.49
2018-08-03T04:50:48.356Z,22.49
2018-08-03T04:51:48.343Z,22.53
2018-08-03T04:52:48.336Z,22.44
2018-08-03T04:53:48.319Z,22.56
2018-08-03T04:54:48.325Z,22.56
2018-08-03T04:55:48.297Z,22.56
2018-08-03T04:56:48.284Z,22.61
2018-08-03T04:57:48.282Z,22.58
2018-08-03T04:58:48.314Z,22.65
2018-08-03T04:59:48.247Z,22.53
2018-08-03T05:00:48.236Z,22.63
2018-08-03T05:01:48.223Z,22.61
2018-08-03T05:02:48.214Z,22.58
2018-08-03T05:03:48.201Z,22.56
2018-08-03T05:04:48.268Z,22.56
2018-08-03T05:05:48.175Z,22.61
2018-08-03T05:06:48.171Z,22.49
2018-08-03T05:07:48.157Z,22.61
2018-08-03T05:08:48.139Z,22.61
2018-08-03T05:09:48.132Z,22.47
2018-08-03T05:10:48.123Z,22.63
2018-08-03T05:11:48.106Z,22.53
2018-08-03T05:12:48.091Z,22.58
2018-08-03T05:13:48.088Z,22.59
2018-08-03T05:14:48.068Z,22.62
2018-08-03T05:15:48.055Z,22.65
2018-08-03T05:16:48.048Z,22.68
2018-08-03T05:17:48.032Z,22.71
2018-08-03T05:18:48.024Z,22.67
2018-08-03T05:19:48.008Z,22.63
2018-08-03T05:20:47.997Z,22.68
2018-08-03T05:21:47.987Z,22.74
2018-08-03T05:22:47.972Z,22.77
2018-08-03T05:23:47.962Z,22.86
2018-08-03T05:24:47.956Z,22.83
2018-08-03T05:25:47.937Z,22.91
2018-08-03T05:26:47.923Z,23.06
2018-08-03T05:27:47.913Z,23.08
2018-08-03T05:28:47.909Z,23.04
2018-08-03T05:29:47.902Z,23.08
2018-08-03T05:30:47.883Z,22.95
2018-08-03T05:31:47.866Z,23.04
2018-08-03T05:32:47.854Z,23.16
2018-08-03T05:33:47.843Z,23.11
2018-08-03T05:34:47.831Z,23.14
2018-08-03T05:35:47.891Z,23.14
2018-08-03T05:36:47.810Z,23.48
2018-08-03T05:37:47.794Z,24.16
2018-08-03T05:38:47.782Z,25.00
2018-08-03T05:39:47.772Z,25.88
2018-08-03T05:40:47.761Z,26.49
2018-08-03T05:41:47.749Z,27.03
2018-08-03T05:42:47.745Z,27.47
2018-08-03T05:43:47.726Z,28.16
2018-08-03T05:44:47.714Z,28.27
2018-08-03T05:45:47.705Z,28.65
2018-08-03T05:46:47.696Z,28.89
2018-08-03T05:47:47.683Z,29.21
2018-08-03T05:48:47.675Z,29.47
2018-08-03T05:49:47.665Z,29.53
2018-08-03T05:50:47.652Z,29.65
2018-08-03T05:51:47.644Z,29.68
2018-08-03T05:52:47.646Z,30.02
2018-08-03T05:53:47.626Z,30.16
2018-08-03T05:54:47.623Z,30.29
2018-08-03T05:55:47.608Z,30.46
2018-08-03T05:56:47.727Z,30.63
2018-08-03T05:57:47.594Z,30.95
2018-08-03T05:58:47.585Z,31.10
2018-08-03T05:59:47.629Z,30.99
2018-08-03T06:00:47.577Z,31.23
2018-08-03T06:01:47.562Z,31.48
2018-08-03T06:02:47.556Z,31.26
2018-08-03T06:03:47.548Z,31.33
2018-08-03T06:04:47.547Z,31.50
2018-08-03T06:05:47.537Z,31.74
2018-08-03T06:06:47.531Z,31.79
2018-08-03T06:07:47.533Z,31.85
2018-08-03T06:08:47.524Z,31.89
2018-08-03T06:09:47.514Z,31.87
2018-08-03T06:10:47.511Z,32.02
2018-08-03T06:11:47.509Z,32.20
2018-08-03T06:12:47.499Z,32.41
2018-08-03T06:13:47.493Z,32.20
2018-08-03T06:14:47.911Z,32.38
2018-08-03T06:15:47.487Z,32.54
2018-08-03T06:17:36.124Z,32.61
2018-08-03T06:18:36.120Z,32.53
2018-08-03T06:19:36.112Z,32.54
2018-08-03T06:20:36.142Z,32.60
2018-08-03T06:21:36.103Z,32.68
2018-08-03T06:22:36.102Z,32.63
2018-08-03T06:23:36.095Z,32.09
2018-08-03T06:24:36.144Z,32.07
2018-08-03T06:25:36.092Z,31.35
2018-08-03T06:26:36.087Z,30.59
2018-08-03T06:27:36.085Z,30.27
2018-08-03T06:28:36.174Z,30.59
2018-08-03T06:29:36.088Z,30.95
2018-08-03T06:30:36.085Z,31.10
2018-08-03T06:31:36.076Z,31.36
2018-08-03T06:32:36.067Z,31.07
2018-08-03T06:33:36.065Z,31.07
2018-08-03T06:34:36.075Z,31.17
2018-08-03T06:35:36.062Z,31.33
2018-08-03T06:36:36.066Z,31.79
2018-08-03T06:37:36.147Z,31.78
2018-08-03T06:38:36.063Z,31.77
2018-08-03T06:39:36.056Z,32.17
2018-08-03T06:40:36.050Z,32.12
2018-08-03T06:41:36.049Z,31.77
2018-08-03T06:42:36.050Z,31.52
2018-08-03T06:44:25.700Z,31.67
2018-08-03T06:45:25.690Z,31.50
2018-08-03T06:47:14.778Z,31.13
2018-08-03T06:48:14.834Z,31.20
2018-08-03T06:49:14.783Z,30.85
2018-08-03T06:50:14.774Z,31.05
2018-08-03T06:51:14.773Z,31.14
2018-08-03T06:52:14.771Z,30.58
2018-08-03T06:53:14.806Z,30.58
2018-08-03T06:54:14.779Z,30.38
2018-08-03T06:55:14.769Z,30.05
2018-08-03T06:56:14.771Z,29.57
2018-08-03T06:57:17.388Z,29.55
2018-08-03T06:58:14.763Z,29.58
2018-08-03T06:59:14.770Z,29.77
2018-08-03T07:00:14.757Z,29.47
2018-08-03T07:01:47.981Z,29.42
2018-08-03T07:02:14.758Z,29.24
2018-08-03T07:03:14.754Z,29.24
2018-08-03T07:04:14.747Z,29.07
2018-08-03T07:05:14.816Z,28.80
2018-08-03T07:06:14.742Z,28.62
2018-08-03T07:07:14.741Z,28.47
2018-08-03T07:08:14.737Z,28.34
2018-08-03T07:09:14.731Z,28.30
2018-08-03T07:10:14.731Z,28.83
2018-08-03T07:11:14.725Z,28.84
2018-08-03T07:12:14.735Z,29.21
2018-08-03T07:13:14.720Z,29.25
2018-08-03T07:14:14.718Z,29.42
2018-08-03T07:15:14.712Z,29.59
2018-08-03T07:16:14.707Z,29.64
2018-08-03T07:17:14.704Z,29.50
2018-08-03T07:18:14.829Z,29.68
2018-08-03T07:19:14.697Z,29.83
2018-08-03T07:20:14.823Z,29.74
2018-08-03T07:21:14.690Z,29.99
2018-08-03T07:22:14.693Z,30.05
2018-08-03T07:23:14.682Z,29.87
2018-08-03T07:24:14.682Z,29.64
2018-08-03T07:25:14.675Z,29.69
2018-08-03T07:26:14.671Z,29.57
2018-08-03T07:27:14.675Z,29.46
2018-08-03T07:28:14.666Z,29.21
2018-08-03T07:29:14.710Z,29.35
2018-08-03T07:30:14.660Z,29.53
2018-08-03T07:31:14.653Z,29.34
2018-08-03T07:32:14.648Z,29.02
2018-08-03T07:33:14.655Z,28.86
2018-08-03T07:34:14.650Z,29.00
2018-08-03T07:35:14.646Z,29.16
2018-08-03T07:36:14.637Z,29.55
2018-08-03T07:37:14.634Z,29.76
2018-08-03T07:38:14.632Z,29.87
2018-08-03T07:39:14.739Z,29.98
2018-08-03T07:40:14.618Z,29.99
2018-08-03T07:41:14.617Z,30.24
2018-08-03T07:42:14.612Z,30.32
2018-08-03T07:43:14.720Z,30.48
2018-08-03T07:44:14.608Z,30.49
2018-08-03T07:45:14.615Z,30.71
2018-08-03T07:46:14.595Z,30.80
2018-08-03T07:47:14.595Z,30.92
2018-08-03T07:48:14.593Z,31.17
2018-08-03T07:49:14.587Z,31.05
2018-08-03T07:50:14.578Z,30.78
2018-08-03T07:51:14.576Z,30.71
2018-08-03T07:52:14.567Z,30.76
2018-08-03T07:53:14.562Z,30.81
2018-08-03T07:54:14.566Z,30.78
2018-08-03T07:55:14.559Z,30.63
2018-08-03T07:56:14.556Z,30.24
2018-08-03T07:57:14.545Z,29.98
2018-08-03T07:58:14.541Z,29.99
2018-08-03T07:59:14.547Z,29.86
2018-08-03T08:00:14.537Z,29.73
2018-08-03T08:01:14.525Z,29.80
2018-08-03T08:02:14.522Z,29.87
2018-08-03T08:03:14.532Z,30.20
2018-08-03T08:04:14.509Z,30.51
2018-08-03T08:05:14.511Z,30.69
2018-08-03T08:06:14.533Z,30.77
2018-08-03T08:07:14.534Z,30.48
2018-08-03T08:08:14.494Z,30.46
2018-08-03T08:09:14.490Z,30.69
2018-08-03T08:10:14.480Z,30.74
2018-08-03T08:11:14.474Z,30.78
2018-08-03T08:12:14.473Z,30.69
2018-08-03T08:13:14.465Z,30.52
2018-08-03T08:14:14.461Z,30.36
2018-08-03T08:15:14.551Z,30.23
2018-08-03T08:16:14.448Z,30.17
2018-08-03T08:17:14.443Z,30.43
2018-08-03T08:18:14.448Z,30.43
2018-08-03T08:19:14.432Z,30.49
2018-08-03T08:20:14.438Z,30.24
2018-08-03T08:21:17.053Z,30.10
2018-08-03T08:22:14.424Z,30.27
2018-08-03T08:23:14.413Z,30.46
2018-08-03T08:24:14.409Z,30.56
2018-08-03T08:25:14.470Z,30.69
2018-08-03T08:26:14.495Z,30.71
2018-08-03T08:27:14.388Z,30.55
2018-08-03T08:28:14.393Z,30.62
2018-08-03T08:29:14.382Z,30.81
2018-08-03T08:30:14.373Z,30.78
2018-08-03T08:31:14.367Z,30.74
2018-08-03T08:32:14.371Z,30.77
2018-08-03T08:33:14.359Z,30.76
2018-08-03T08:34:14.351Z,30.86
2018-08-03T08:35:14.356Z,30.89
2018-08-03T08:36:14.337Z,30.98
2018-08-03T08:37:14.372Z,30.93
2018-08-03T08:38:14.439Z,31.11
2018-08-03T08:39:14.329Z,30.93
2018-08-03T08:40:14.313Z,31.08
2018-08-03T08:41:14.310Z,31.00
2018-08-03T08:42:14.307Z,31.15
2018-08-03T08:43:14.298Z,31.10
2018-08-03T08:44:14.426Z,31.26
2018-08-03T08:45:14.297Z,31.39
2018-08-03T08:46:14.276Z,31.41
2018-08-03T08:47:14.269Z,31.44
2018-08-03T08:48:14.280Z,31.45
2018-08-03T08:49:14.391Z,31.36
2018-08-03T08:50:14.250Z,31.26
2018-08-03T08:51:14.253Z,31.23
2018-08-03T08:52:14.247Z,31.22
2018-08-03T08:53:14.245Z,31.17
2018-08-03T08:54:14.229Z,31.36
2018-08-03T08:55:14.221Z,31.39
2018-08-03T08:56:14.217Z,31.42
2018-08-03T08:57:14.217Z,31.55
2018-08-03T08:58:14.204Z,31.74
2018-08-03T08:59:14.196Z,31.82
2018-08-03T09:00:14.199Z,32.09
2018-08-03T09:01:14.239Z,32.23
2018-08-03T09:02:14.230Z,32.39
2018-08-03T09:03:14.172Z,32.38
2018-08-03T09:04:14.173Z,32.67
2018-08-03T09:05:14.213Z,32.72
2018-08-03T09:06:14.156Z,32.85
2018-08-03T09:07:14.148Z,33.01
2018-08-03T09:08:14.144Z,33.40
2018-08-03T09:09:14.139Z,33.84
2018-08-03T09:10:14.129Z,34.22
2018-08-03T09:11:14.131Z,34.51
2018-08-03T09:12:14.119Z,34.70
2018-08-03T09:13:14.178Z,34.88
2018-08-03T09:14:14.112Z,35.00
2018-08-03T09:15:14.254Z,34.85
2018-08-03T09:16:14.109Z,34.91
2018-08-03T09:17:14.091Z,34.76
2018-08-03T09:18:14.087Z,34.38
2018-08-03T09:19:14.084Z,34.41
2018-08-03T09:20:14.075Z,34.51
2018-08-03T09:21:14.073Z,34.10
2018-08-03T09:22:14.116Z,34.00
2018-08-03T09:23:14.064Z,34.19
2018-08-03T09:24:14.062Z,34.40
2018-08-03T09:25:14.056Z,34.55
2018-08-03T09:26:14.052Z,34.38
2018-08-03T09:27:14.058Z,34.35
2018-08-03T09:28:14.083Z,34.19
2018-08-03T09:29:14.050Z,34.26
2018-08-03T09:30:14.037Z,33.73
2018-08-03T09:31:14.033Z,33.58
2018-08-03T09:32:14.029Z,33.54
2018-08-03T09:33:14.035Z,33.75
2018-08-03T09:34:14.034Z,33.84
2018-08-03T09:35:14.018Z,34.00
2018-08-03T09:36:14.114Z,34.07
2018-08-03T09:37:14.015Z,34.07
2018-08-03T09:38:14.010Z,34.11
2018-08-03T09:39:14.007Z,34.31
2018-08-03T09:40:14.003Z,34.50
2018-08-03T09:41:14.006Z,34.82
2018-08-03T09:42:13.997Z,35.23
2018-08-03T09:43:13.993Z,35.50
2018-08-03T09:44:13.992Z,36.01
2018-08-03T09:45:13.992Z,36.38
2018-08-03T09:46:14.005Z,36.65
2018-08-03T09:47:13.983Z,36.67
2018-08-03T09:48:13.988Z,36.81
2018-08-03T09:49:14.048Z,37.04
2018-08-03T09:50:13.979Z,37.11
2018-08-03T09:51:13.976Z,37.34
2018-08-03T09:52:13.969Z,37.79
2018-08-03T09:53:13.964Z,38.25
2018-08-03T09:54:13.969Z,38.17
2018-08-03T09:55:14.000Z,37.26
2018-08-03T09:56:14.771Z,37.33
2018-08-03T09:57:17.794Z,37.19
2018-08-03T09:58:13.959Z,37.28
2018-08-03T09:59:14.052Z,37.63
2018-08-03T10:00:13.963Z,37.64
2018-08-03T10:01:13.973Z,37.66
2018-08-03T10:02:14.018Z,37.86
2018-08-03T10:03:13.958Z,38.25
2018-08-03T10:04:13.966Z,38.63
2018-08-03T10:05:13.958Z,38.79
2018-08-03T10:06:13.967Z,39.08
2018-08-03T10:07:13.980Z,39.08
2018-08-03T10:08:13.971Z,39.26
2018-08-03T10:09:13.969Z,39.42
2018-08-03T10:10:13.972Z,39.42
2018-08-03T10:11:13.971Z,38.91
2018-08-03T10:12:14.090Z,38.98
2018-08-03T10:13:13.981Z,39.45
2018-08-03T10:14:13.990Z,39.68
2018-08-03T10:15:13.991Z,39.78
2018-08-03T10:16:13.992Z,39.95
2018-08-03T10:17:14.000Z,40.10
2018-08-03T10:18:14.011Z,40.26
2018-08-03T10:19:14.009Z,40.28
2018-08-03T10:20:14.021Z,40.32
2018-08-03T10:21:14.021Z,40.40
2018-08-03T10:22:14.044Z,39.63
2018-08-03T10:23:14.035Z,39.14
2018-08-03T10:24:14.039Z,38.58
2018-08-03T10:25:14.047Z,38.76
2018-08-03T10:26:14.053Z,39.08
2018-08-03T10:27:14.058Z,39.08
2018-08-03T10:28:14.077Z,39.17
2018-08-03T10:29:14.076Z,39.63
2018-08-03T10:30:14.085Z,39.66
2018-08-03T10:31:14.104Z,39.34
2018-08-03T10:32:14.100Z,39.17
2018-08-03T10:33:14.106Z,39.17
2018-08-03T10:34:14.123Z,39.04
2018-08-03T10:35:14.123Z,38.62
2018-08-03T10:36:14.134Z,38.56
2018-08-03T10:37:14.138Z,38.60
2018-08-03T10:38:14.149Z,38.91
2018-08-03T10:39:14.164Z,39.52
2018-08-03T10:40:14.164Z,39.86
2018-08-03T10:41:14.170Z,40.17
2018-08-03T10:42:14.179Z,40.43
2018-08-03T10:43:14.207Z,40.70
2018-08-03T10:44:14.198Z,40.59
2018-08-03T10:45:14.208Z,40.58
2018-08-03T10:46:14.214Z,40.71
2018-08-03T10:47:14.248Z,40.69
2018-08-03T10:48:14.230Z,39.97
2018-08-03T10:49:14.245Z,39.79
2018-08-03T10:50:14.257Z,39.27
2018-08-03T10:51:14.260Z,39.19
2018-08-03T10:52:14.267Z,39.08
2018-08-03T10:53:14.281Z,38.75
2018-08-03T10:54:14.288Z,38.81
2018-08-03T10:55:14.300Z,38.91
2018-08-03T10:56:14.314Z,39.27
2018-08-03T10:57:14.317Z,39.34
2018-08-03T10:58:14.370Z,39.22
2018-08-03T10:59:14.332Z,39.22
2018-08-03T11:00:14.355Z,39.11
2018-08-03T11:01:14.361Z,39.42
2018-08-03T11:02:14.363Z,39.39
2018-08-03T11:03:14.374Z,39.34
2018-08-03T11:04:14.376Z,39.54
2018-08-03T11:05:14.390Z,39.54
2018-08-03T11:06:14.394Z,39.12
2018-08-03T11:07:14.429Z,38.76
2018-08-03T11:08:14.409Z,38.57
2018-08-03T11:09:14.425Z,38.60
2018-08-03T11:10:14.437Z,38.68
2018-08-03T11:11:14.436Z,38.62
2018-08-03T11:12:14.443Z,38.98
2018-08-03T11:13:14.460Z,38.90
2018-08-03T11:14:14.470Z,39.15
2018-08-03T11:15:14.469Z,39.23
2018-08-03T11:16:14.478Z,39.37
2018-08-03T11:17:14.485Z,39.70
2018-08-03T11:18:14.494Z,39.42
2018-08-03T11:19:14.504Z,38.90
2018-08-03T11:20:14.513Z,39.41
2018-08-03T11:21:14.546Z,39.19
2018-08-03T11:22:14.528Z,39.04
2018-08-03T11:23:14.536Z,38.91
2018-08-03T11:24:14.626Z,38.76
2018-08-03T11:25:14.554Z,38.75
2018-08-03T11:26:14.564Z,38.65
2018-08-03T11:27:14.581Z,38.54
2018-08-03T11:28:14.579Z,37.85
2018-08-03T11:29:14.588Z,37.37
2018-08-03T11:30:14.599Z,37.56
2018-08-03T11:31:14.604Z,37.15
2018-08-03T11:32:14.618Z,36.82
2018-08-03T11:33:14.621Z,36.44
2018-08-03T11:34:14.621Z,36.20
2018-08-03T11:35:14.670Z,36.09
2018-08-03T11:36:14.649Z,35.98
2018-08-03T11:37:14.639Z,35.76
2018-08-03T11:38:14.657Z,35.86
2018-08-03T11:39:14.664Z,35.96
2018-08-03T11:40:14.651Z,36.05
2018-08-03T11:41:14.715Z,36.11
2018-08-03T11:42:14.668Z,36.20
2018-08-03T11:43:14.665Z,36.69
2018-08-03T11:44:14.686Z,36.70
2018-08-03T11:45:14.676Z,36.50
2018-08-03T11:46:14.676Z,36.26
2018-08-03T11:47:14.680Z,36.16
2018-08-03T11:48:14.680Z,36.09
2018-08-03T11:49:14.677Z,35.94
2018-08-03T11:50:14.681Z,35.88
2018-08-03T11:51:14.682Z,36.31
2018-08-03T11:52:14.687Z,36.73
2018-08-03T11:53:14.687Z,36.81
2018-08-03T11:54:14.710Z,37.03
2018-08-03T11:55:14.689Z,37.11
2018-08-03T11:56:14.710Z,37.23
2018-08-03T11:57:14.693Z,37.37
2018-08-03T11:58:14.694Z,37.01
2018-08-03T11:59:14.697Z,36.70
2018-08-03T12:00:14.710Z,36.22
2018-08-03T12:01:14.710Z,36.25
2018-08-03T12:02:14.702Z,36.67
2018-08-03T12:03:14.702Z,36.70
2018-08-03T12:04:14.713Z,36.33
2018-08-03T12:05:14.703Z,36.09
2018-08-03T12:06:14.716Z,35.69
2018-08-03T12:07:14.712Z,35.52
2018-08-03T12:08:14.707Z,35.30
2018-08-03T12:09:14.704Z,35.22
2018-08-03T12:10:14.709Z,35.10
2018-08-03T12:11:14.704Z,34.85
2018-08-03T12:12:15.322Z,34.66
2018-08-03T12:13:14.704Z,34.56
2018-08-03T12:14:14.705Z,34.53
2018-08-03T12:15:14.705Z,34.73
2018-08-03T12:16:14.701Z,35.04
2018-08-03T12:17:14.701Z,35.08
2018-08-03T12:18:14.699Z,35.39
2018-08-03T12:19:14.697Z,35.44
2018-08-03T12:20:14.704Z,35.41
2018-08-03T12:21:14.696Z,35.47
2018-08-03T12:22:14.692Z,35.59
2018-08-03T12:23:14.699Z,35.71
2018-08-03T12:24:14.688Z,35.76
2018-08-03T12:25:14.688Z,35.86
2018-08-03T12:26:14.693Z,35.86
2018-08-03T12:27:14.692Z,35.76
2018-08-03T12:28:14.689Z,35.66
2018-08-03T12:29:14.689Z,35.52
2018-08-03T12:30:14.689Z,35.37
2018-08-03T12:31:14.733Z,35.38
2018-08-03T12:32:14.692Z,35.37
2018-08-03T12:33:14.683Z,35.45
2018-08-03T12:34:14.678Z,35.27
2018-08-03T12:35:17.292Z,35.32
2018-08-03T12:36:14.669Z,35.32
2018-08-03T12:37:14.680Z,35.44
2018-08-03T12:38:14.666Z,35.61
2018-08-03T12:39:14.661Z,35.61
2018-08-03T12:40:14.661Z,35.68
2018-08-03T12:41:14.662Z,35.44
2018-08-03T12:42:14.657Z,35.41
2018-08-03T12:44:04.093Z,35.07
2018-08-03T12:45:04.099Z,35.00
2018-08-03T12:46:04.127Z,35.01
2018-08-03T12:47:04.089Z,35.13
2018-08-03T12:48:04.088Z,35.00
2018-08-03T12:49:04.079Z,34.88
2018-08-03T12:50:04.091Z,34.79
2018-08-03T12:51:04.073Z,34.79
2018-08-03T12:52:04.081Z,34.85
2018-08-03T12:53:04.067Z,34.86
2018-08-03T12:54:04.068Z,34.85
2018-08-03T12:55:04.062Z,34.85
2018-08-03T12:56:04.060Z,34.73
2018-08-03T12:57:04.065Z,34.69
2018-08-03T12:58:04.225Z,34.82
2018-08-03T12:59:04.052Z,34.91
2018-08-03T13:00:04.050Z,34.96
2018-08-03T13:01:04.070Z,34.97